Aeroporto :
LOGIN :

Iscrizione | Disclaimer

   EN    FR    IT 

 










Sommario :    VFR   VFR Marginale   IFR   IFR Intensivo   IFR Molto Intensivo
Visibilità : 
Base nubi : 
>= 8 km
>= 3000ft
5 / 8 km
1000 / 3000 ft
1500m / 5 km
500 / 1000 ft
800 / 1500m
200 / 500 ft
< 800m
< 200 ft
Simboli :   Temporali  Nebbia  Neve Forte  Precipitazioni Forti  Vento > 20 kt
SIGMETs :   Varie  Temporali  Ghiacco  Turbolenza  Onda orograficha  Ceneri Vulcaniche






- Altitudine del aeroporto : 1742 ft
- Codice IATA : SOF


LBSF - Sofia Int.

ULTIMO METAR :
  • 240600Z 30004KT 270V340 9999 FEW011 SCT048 BKN060 12/09 Q1006 NOSIG

METARs OBSOLETI :
  • 240530Z 28003KT 250V320 8000 FEW009 BKN040 BKN062 11/09 Q1006 NOSIG
  • 240500Z 26005KT 7000 FEW011 BKN035 11/10 Q1006 NOSIG
  • 240430Z 32003KT 280V340 6000 FEW009 SCT011 OVC030 10/09 Q1006 TEMPO BKN010
  • 240400Z VRB02KT 9999 SCT011 BKN019 OVC025 10/09 Q1006 TEMPO BKN010
  • 240330Z 33003KT 300V020 9999 FEW010 BKN019 OVC041 10/09 Q1006 NOSIG
  • 240300Z AUTO VRB02KT 9999 FEW009/// SCT022/// OVC039/// 11/09 Q1005 NOSIG
  • 240230Z AUTO VRB04KT 9999 FEW011/// BKN023/// BKN054/// 11/09 Q1005 NOSIG
  • 240130Z AUTO 07007KT 9999 FEW012/// BKN036/// BKN049/// 09/08 Q1005 TEMPO 5000 BR

TAF TAF LBSF
Valido dal 24 a 06 ore il 25 a 06 ore UTC


240500Z 2406/2506 VRB04KT 7000 BKN010 OVC030
BECMG 2408/2410 33010KT SCT040
PROB40
TEMPO 2412/2417 5000 TSRA FEW030CB BKN040
BECMG 2417/2419 VRB04KT
BECMG 2500/2502 29012KT
TEMPO 2502/2506 5000 RA BKN020 OVC040



MetMap, La meteo Aeronautica in un colpo d'occhio ! - Copyright ORBIFLY Dicembre 2007 - Disclaimer

ORBIFLY MET'MAP TEAM :

Programmazione e sviluppo : Alexandra Zaïnal
Concezione : Baudouin d'Aumeries
Supporto tecnico e logistico : Manuel Goepfert
Aiuto : Marc-Olivier Méhu
Aiuto per la traduzione : Arnaldo La Scala




FONTI E CREDITI :

   NOAA